Data for 06/29/2009

Time Sea-Level Adjusted Pressure Absolute Pressure Temperature Relative Humidity Dew Point   
(mb) (inHg) (mb) (inHg) (C) (F) (%) (C) (F)
00:05 1019 30.09 848 25.04 18.1 64.6 41 4.6 40.3
00:10 1019 30.09 848 25.04 17.7 63.8 42 4.7 40.5
00:15 1019 30.09 848 25.04 17.4 63.2 44 4.9 40.9
00:20 1019 30.09 848 25.04 16.9 62.5 48 5.9 42.6
00:25 1019 30.09 848 25.04 16.9 62.4 44 4.8 40.7
00:30 1019 30.09 848 25.04 16.5 61.7 48 5.6 42
00:35 1019 30.09 848 25.04 16.2 61.1 50 5.8 42.5
00:40 1019 30.09 848 25.04 16.3 61.3 46 4.7 40.5
00:45 1019 30.09 848 25.04 16.3 61.4 46 4.9 40.8
00:50 1019 30.09 848 25.04 16.4 61.5 44 4.3 39.7
00:55 1019 30.09 848 25.04 16.8 62.3 46 5.2 41.4
01:00 1019 30.09 848 25.04 16.7 62 46 5.2 41.3
01:05 1019 30.09 848 25.04 16.3 61.3 47 5.2 41.3
01:10 1019 30.09 848 25.04 16.2 61.2 49 5.6 42.1
01:15 1019 30.09 848 25.04 16.4 61.5 44 4.4 39.9
01:20 1019 30.09 848 25.04 16.5 61.6 48 5.4 41.7
01:25 1019 30.09 848 25.04 16.1 61.1 47 4.9 40.8
01:30 1019 30.09 848 25.04 16.1 60.9 46 4.6 40.3
01:35 1019 30.09 848 25.04 16.1 61 45 4.5 40
01:40 1019 30.09 848 25.04 16.1 61 49 5.5 42
01:45 1019 30.09 848 25.04 15.8 60.4 50 5.5 42
01:50 1019 30.09 848 25.04 15.5 59.9 52 5.7 42.2
01:55 1019 30.09 848 25.04 15.2 59.3 50 4.9 40.8
02:00 1019 30.09 848 25.04 14.8 58.6 51 4.9 40.8
02:05 1019 30.09 848 25.04 14.5 58.2 52 4.8 40.6
02:10 1019 30.09 848 25.04 14.7 58.4 51 4.7 40.4
02:15 1019 30.09 848 25.04 14.9 58.9 50 4.7 40.4
02:20 1019 30.09 848 25.04 15 58.9 48 4.2 39.6
02:25 1019 30.09 848 25.04 15.2 59.4 48 4.4 39.9
02:30 1019 30.09 848 25.04 15.2 59.4 47 4.1 39.5
02:35 1019 30.09 848 25.04 15.3 59.6 45 3.6 38.5
02:40 1019 30.09 848 25.04 15.6 60.1 45 3.7 38.6
02:45 1019 30.09 848 25.04 15.7 60.2 45 3.8 38.9
02:50 1019 30.09 848 25.04 15.5 60 44 3.5 38.2
02:55 1019 30.09 848 25.04 15.4 59.7 45 3.5 38.4
03:00 1019 30.09 848 25.04 15.4 59.8 43 3.1 37.5
03:05 1019 30.09 848 25.04 15.5 59.9 45 3.7 38.6
03:10 1019 30.09 848 25.04 15.4 59.7 46 3.9 39
03:15 1019 30.09 848 25.04 15.3 59.5 46 3.8 38.9
03:20 1019 30.09 848 25.04 15.1 59.1 45 3.3 37.9
03:25 1019 30.09 848 25.04 15.2 59.3 46 3.8 38.8
03:30 1019 30.09 848 25.04 15.2 59.4 46 3.7 38.6
03:35 1019 30.09 849 25.07 15 59 45 3.3 38
03:40 1019 30.09 849 25.07 15 59.1 43 2.8 37
03:45 1019 30.09 849 25.07 15.2 59.3 43 2.9 37.2
03:50 1019 30.09 849 25.07 15.2 59.3 43 2.7 36.8
03:55 1019 30.09 849 25.07 14.6 58.3 46 3.3 37.9
04:00 1020 30.12 849 25.07 14 57.2 47 3 37.5
04:05 1019 30.09 849 25.07 14 57.2 48 3.3 38
04:10 1020 30.12 849 25.07 13.8 56.8 49 3.2 37.7
04:15 1019 30.09 849 25.07 13.9 57 48 3.2 37.8
04:20 1019 30.09 849 25.07 13.8 56.8 48 3.1 37.6
04:25 1019 30.09 849 25.07 13.8 56.8 48 3.1 37.6
04:30 1019 30.09 849 25.07 13.6 56.5 49 3.1 37.5
04:35 1019 30.09 849 25.07 13.7 56.6 48 2.9 37.2
04:40 1019 30.09 849 25.07 13.9 57 46 2.6 36.7
04:45 1019 30.09 849 25.07 14 57.3 46 2.7 36.8
04:50 1019 30.09 849 25.07 14.1 57.3 45 2.5 36.6
04:55 1019 30.09 849 25.07 14.1 57.4 46 2.6 36.7
05:00 1019 30.09 849 25.07 13.9 57 48 3.1 37.5
05:05 1019 30.09 849 25.07 13.7 56.6 47 2.7 36.9
05:10 1019 30.09 849 25.07 13.9 57 47 2.8 37
05:15 1019 30.09 849 25.07 14 57.3 46 2.7 36.9
05:20 1019 30.09 849 25.07 13.7 56.7 50 3.5 38.2
05:25 1019 30.09 849 25.07 13.1 55.6 51 3.2 37.7
05:30 1019 30.09 849 25.07 13 55.4 51 3.3 37.9
05:35 1019 30.09 849 25.07 12.8 55 53 3.3 38
05:40 1019 30.09 848 25.04 12.7 54.8 53 3.3 38
05:45 1019 30.09 848 25.04 12.6 54.6 53 3.4 38.2
05:50 1019 30.09 848 25.04 12.5 54.5 53 3.3 37.9
05:55 1019 30.09 848 25.04 12.7 54.8 52 3.1 37.6
06:00 1019 30.09 848 25.04 13 55.3 51 3.1 37.6
06:05 1019 30.09 848 25.04 13.3 55.9 49 3 37.4
06:10 1019 30.09 848 25.04 13.5 56.3 50 3.2 37.8
06:15 1019 30.09 848 25.04 13.7 56.6 48 3 37.5
06:20 1019 30.09 849 25.07 13.9 57.1 48 3.1 37.6
06:25 1019 30.09 849 25.07 14 57.2 47 3 37.4
06:30 1019 30.09 849 25.07 13.8 56.8 51 3.8 38.9
06:35 1019 30.09 849 25.07 13.5 56.3 49 3.2 37.7
06:40 1019 30.09 849 25.07 13.8 56.8 47 2.9 37.2
06:45 1019 30.09 849 25.07 14.4 57.8 48 3.4 38.2
06:50 1019 30.09 849 25.07 14.4 57.9 47 3.5 38.3
06:55 1019 30.09 849 25.07 14.7 58.5 47 3.6 38.6
07:00 1020 30.12 849 25.07 15.1 59.1 45 3.2 37.8
07:05 1020 30.12 849 25.07 15.4 59.6 44 3.1 37.6
07:10 1020 30.12 849 25.07 15.6 60.1 43 3 37.4
07:15 1020 30.12 849 25.07 15.6 60.1 42 2.9 37.2
07:20 1020 30.12 849 25.07 15.7 60.3 42 2.8 37.1
07:25 1020 30.12 849 25.07 15.7 60.3 43 3.4 38.1
07:30 1020 30.12 849 25.07 15.8 60.5 45 4.1 39.4
07:35 1020 30.12 849 25.07 15.9 60.6 45 4.2 39.5
07:40 1020 30.12 849 25.07 16.5 61.6 45 4.5 40
07:45 1020 30.12 849 25.07 16.9 62.5 44 4.8 40.6
07:50 1020 30.12 849 25.07 17.8 64 41 4.6 40.3
07:55 1020 30.12 849 25.07 18.1 64.6 40 4.6 40.3
08:00 1020 30.12 849 25.07 18.6 65.5 39 4.6 40.3
08:05 1020 30.12 849 25.07 18.8 65.9 38 4.4 39.8
08:10 1020 30.12 849 25.07 19 66.1 38 4.4 39.9
08:15 1020 30.12 849 25.07 19.2 66.6 37 4.5 40.1
08:20 1020 30.12 849 25.07 19.7 67.4 36 4.3 39.7
08:25 1020 30.12 849 25.07 19.9 67.7 37 5 41.1
08:30 1020 30.12 849 25.07 19.7 67.4 38 5 40.9
08:35 1020 30.12 849 25.07 20.3 68.6 36 4.8 40.6
08:40 1020 30.12 849 25.07 20.3 68.5 36 4.9 40.8
08:45 1020 30.12 849 25.07 20.2 68.4 37 5.1 41.3
08:50 1020 30.12 849 25.07 20.3 68.5 36 4.8 40.6
08:55 1020 30.12 849 25.07 20.1 68.2 36 4.5 40.2
09:00 1020 30.12 849 25.07 19.9 67.8 34 3.7 38.7
09:05 1020 30.12 849 25.07 20.6 69.1 31 3 37.4
09:10 1020 30.12 849 25.07 20.6 69 31 2.9 37.2
09:15 1020 30.12 849 25.07 21.4 70.4 32 4 39.1
09:20 1020 30.12 849 25.07 21.1 70 32 3.7 38.7
09:25 1020 30.12 849 25.07 21.1 70 32 4.1 39.4
09:30 1020 30.12 849 25.07 21.6 70.9 31 4.1 39.3
09:35 1020 30.12 849 25.07 22.4 72.3 31 4.8 40.6
09:40 1019 30.09 849 25.07 21.5 70.7 34 5.3 41.6
09:45 1019 30.09 849 25.07 21.5 70.8 34 5 41
09:50 1019 30.09 849 25.07 21.7 71 33 4.8 40.7
09:55 1019 30.09 849 25.07 22.1 71.7 31 4.2 39.6
10:00 1019 30.09 848 25.04 22.1 71.9 30 4 39.2
10:05 1019 30.09 848 25.04 22.4 72.3 30 4.2 39.6
10:10 1019 30.09 848 25.04 22.7 72.8 28 3.6 38.5
10:15 1019 30.09 848 25.04 22.9 73.2 29 4.1 39.4
10:20 1019 30.09 848 25.04 23.7 74.7 28 4.3 39.8
10:25 1019 30.09 848 25.04 23.9 74.9 27 4.2 39.6
10:30 1019 30.09 848 25.04 24.5 76.1 26 4.1 39.3
10:35 1019 30.09 848 25.04 24.8 76.6 27 4.8 40.6
10:40 1019 30.09 848 25.04 23.2 73.8 29 4.3 39.8
10:45 1019 30.09 848 25.04 23.6 74.4 28 4.1 39.4
10:50 1019 30.09 848 25.04 23.9 75 26 3.5 38.3
10:55 1019 30.09 848 25.04 24.2 75.6 26 4 39.2
11:00 1019 30.09 848 25.04 24 75.2 29 5 41.1
11:05 1019 30.09 848 25.04 23.7 74.7 27 4 39.2
11:10 1019 30.09 848 25.04 24.2 75.5 27 4.4 39.9
11:15 1019 30.09 848 25.04 23.5 74.3 26 3.3 37.9
11:20 1019 30.09 848 25.04 23.1 73.6 28 3.9 39
11:25 1019 30.09 848 25.04 24 75.1 31 5.8 42.5
11:30 1019 30.09 848 25.04 24.7 76.5 29 5.6 42.1
11:35 1019 30.09 848 25.04 25 77 29 6 42.8
11:40 1019 30.09 848 25.04 25.2 77.3 28 5.8 42.4
11:45 1019 30.09 848 25.04 25.4 77.8 28 6 42.8
11:50 1019 30.09 848 25.04 24.7 76.5 29 5.5 41.9
11:55 1019 30.09 848 25.04 25.4 77.8 28 5.8 42.5
12:00 1019 30.09 848 25.04 26.1 79 26 5.5 41.9
12:05 1019 30.09 848 25.04 25.2 77.4 27 5.1 41.1
12:10 1018 30.06 848 25.04 25 77 27 4.9 40.9
12:15 1018 30.06 848 25.04 25 77 25 4 39.2
12:20 1018 30.06 848 25.04 25.7 78.2 24 3.7 38.7
12:25 1018 30.06 848 25.04 26.6 79.8 25 5.3 41.6
12:30 1018 30.06 847 25.01 26.4 79.5 26 5.9 42.6
12:35 1018 30.06 847 25.01 26.4 79.4 26 5.3 41.6
12:40 1018 30.06 847 25.01 27 80.5 25 5.5 41.9
12:45 1018 30.06 847 25.01 26.1 78.9 25 4.8 40.6
12:50 1018 30.06 847 25.01 27.1 80.7 25 5.4 41.8
12:55 1018 30.06 847 25.01 27.8 82.1 24 5.5 41.8
13:00 1018 30.06 847 25.01 27.4 81.2 24 5.1 41.2
13:05 1018 30.06 847 25.01 26.6 79.9 27 6.2 43.1
13:10 1018 30.06 847 25.01 25.9 78.6 26 5 41
13:15 1018 30.06 847 25.01 26.3 79.4 26 5.3 41.5
13:20 1018 30.06 847 25.01 26.3 79.3 25 4.9 40.8
13:25 1018 30.06 847 25.01 27.6 81.7 24 5.6 42.1
13:30 1018 30.06 847 25.01 27.6 81.8 26 6.7 44.1
13:35 1018 30.06 847 25.01 27.5 81.5 25 6.2 43.2
13:40 1018 30.06 847 25.01 26.8 80.2 27 6.3 43.3
13:45 1018 30.06 847 25.01 26.2 79.1 26 5.2 41.3
13:50 1017 30.03 847 25.01 26.9 80.4 25 5.4 41.6
13:55 1017 30.03 847 25.01 26.6 79.9 26 6 42.9
14:00 1017 30.03 847 25.01 27.5 81.4 24 5.5 42
14:05 1017 30.03 847 25.01 28.1 82.6 23 5.6 42.1
14:10 1017 30.03 847 25.01 28.8 83.8 22 5.3 41.5
14:15 1017 30.03 846 24.98 28.6 83.4 24 6.2 43.1
14:20 1017 30.03 846 24.98 27.6 81.6 24 5.7 42.3
14:25 1017 30.03 846 24.98 27.9 82.2 24 5.5 42
14:30 1017 30.03 846 24.98 27.7 81.8 23 5.2 41.3
14:35 1017 30.03 846 24.98 28.5 83.4 23 5.9 42.6
14:40 1017 30.03 846 24.98 29.2 84.6 22 5.8 42.5
14:45 1017 30.03 846 24.98 29.3 84.8 21 5.1 41.2
14:50 1017 30.03 846 24.98 29.2 84.6 22 5.5 41.9
14:55 1017 30.03 846 24.98 29.7 85.4 20 4.8 40.6
15:00 1017 30.03 846 24.98 29.8 85.6 19 4 39.2
15:05 1017 30.03 846 24.98 29.7 85.5 17 2.7 36.8
15:10 1017 30.03 846 24.98 30.1 86.2 18 3.8 38.8
15:15 1017 30.03 846 24.98 30.2 86.4 18 3.4 38.2
15:20 1017 30.03 846 24.98 30 86.1 18 3.8 38.8
15:25 1017 30.03 846 24.98 30 85.9 18 3.1 37.6
15:30 1017 30.03 846 24.98 29.9 85.8 19 3.9 39
15:35 1017 30.03 846 24.98 29.9 85.8 18 3.4 38.1
15:40 1017 30.03 846 24.98 29.5 85 18 2.9 37.2
15:45 1017 30.03 846 24.98 30.1 86.2 17 2.8 37
15:50 1017 30.03 846 24.98 30.3 86.5 18 3.9 39
15:55 1016 30 846 24.98 30.6 87 18 3.6 38.4
16:00 1016 30 846 24.98 29.8 85.6 19 3.8 38.8
16:05 1016 30 846 24.98 28.7 83.7 17 1.9 35.3
16:10 1016 30 845 24.95 30 85.9 17 2.9 37.2
16:15 1016 30 845 24.95 30.5 86.8 17 3.4 38.1
16:20 1016 30 845 24.95 30.2 86.4 17 2.7 36.9
16:25 1016 30 845 24.95 29.4 84.8 17 2.3 36.1
16:30 1016 30 846 24.98 28.8 83.8 17 1.6 34.9
16:35 1016 30 846 24.98 28.7 83.7 18 2.3 36.1
16:40 1016 30 846 24.98 29.6 85.3 15 0.3 32.6
16:45 1016 30 846 24.98 31.3 88.4 14 0.9 33.6
16:50 1016 30 845 24.95 32.1 89.7 14 1.3 34.4
16:55 1016 30 845 24.95 31.9 89.3 15 2.1 35.8
17:00 1016 30 845 24.95 30.8 87.4 14 0.8 33.4
17:05 1016 30 845 24.95 30.5 87 14 0.8 33.4
17:10 1016 30 845 24.95 30.8 87.4 14 0.8 33.4
17:15 1016 30 845 24.95 29.6 85.3 15 0.4 32.7
17:20 1016 30 845 24.95 29.9 85.8 15 1.2 34.2
17:25 1016 30 845 24.95 29.4 84.8 16 1.1 34
17:30 1016 30 845 24.95 28.9 84.1 18 2.5 36.6
17:35 1016 30 845 24.95 28.9 84.1 16 1.2 34.1
17:40 1016 30 845 24.95 29.7 85.4 18 3.5 38.3
17:45 1016 30 845 24.95 29.2 84.5 24 6.9 44.4
17:50 1016 30 846 24.98 27.4 81.4 29 8.1 46.5
17:55 1016 30 845 24.95 26.3 79.3 32 8.5 47.2
18:00 1016 30 845 24.95 25.9 78.6 32 8 46.4
18:05 1016 30 845 24.95 25.7 78.3 26 4.9 40.8
18:10 1016 30 845 24.95 25.9 78.6 26 5.2 41.3
18:15 1016 30 845 24.95 26.6 79.9 27 6.2 43.1
18:20 1016 30 845 24.95 26.6 79.8 28 6.8 44.2
18:25 1016 30 845 24.95 26.2 79.2 32 8.4 47.1
18:30 1016 30 845 24.95 26 78.8 28 6.4 43.6
18:35 1016 30 845 24.95 26 78.7 28 6.3 43.4
18:40 1016 30 845 24.95 26 78.8 29 7 44.7
18:45 1015 29.97 845 24.95 25.5 78 30 6.7 44.1
18:50 1015 29.97 845 24.95 25 77.1 31 7.1 44.7
18:55 1016 30 845 24.95 24.7 76.5 33 7.8 46
19:00 1016 30 845 24.95 24.7 76.4 32 6.9 44.5
19:05 1016 30 845 24.95 25.2 77.4 31 7.1 44.8
19:10 1016 30 845 24.95 25.6 78.1 30 6.9 44.4
19:15 1016 30 845 24.95 25.7 78.3 30 7.2 44.9
19:20 1016 30 845 24.95 25.4 77.7 31 7.3 45.2
19:25 1016 30 845 24.95 25.1 77.2 32 7.3 45.2
19:30 1016 30 845 24.95 24.8 76.6 34 8 46.3
19:35 1016 30 845 24.95 24.4 75.9 34 7.9 46.2
19:40 1016 30 845 24.95 24.3 75.7 33 7.1 44.8
19:45 1016 30 846 24.98 24.2 75.5 34 7.6 45.7
19:50 1017 30.03 846 24.98 23.8 74.8 35 7.5 45.6
19:55 1017 30.03 846 24.98 22 71.6 46 10.1 50.2
20:00 1016 30 846 24.98 19.8 67.7 56 10.9 51.6
20:05 1016 30 846 24.98 18.9 66 59 10.7 51.3
20:10 1016 30 846 24.98 18.8 65.9 58 10.5 50.8
20:15 1016 30 846 24.98 18.9 66.1 53 9.3 48.8
20:20 1016 30 846 24.98 19.3 66.7 53 9.7 49.5
20:25 1017 30.03 846 24.98 19.4 67 50 8.9 48
20:30 1017 30.03 846 24.98 19.5 67.1 49 8.7 47.7
20:35 1017 30.03 846 24.98 19.7 67.4 50 9.1 48.4
20:40 1017 30.03 846 24.98 18.9 66.1 59 10.8 51.5
20:45 1017 30.03 846 24.98 18.5 65.2 54 9.1 48.3
20:50 1017 30.03 846 24.98 19.3 66.7 45 7.3 45.2
20:55 1017 30.03 846 24.98 19.8 67.6 48 8.5 47.3
21:00 1017 30.03 846 24.98 19.5 67.1 48 8.3 46.9
21:05 1017 30.03 846 24.98 19.4 67 46 7.6 45.7
21:10 1017 30.03 846 24.98 19.7 67.4 45 7.6 45.7
21:15 1017 30.03 846 24.98 19.8 67.6 44 7.2 45
21:20 1017 30.03 846 24.98 19.8 67.6 44 7.3 45.1
21:25 1017 30.03 846 24.98 19.9 67.7 43 7.1 44.8
21:30 1016 30 846 24.98 19.7 67.4 44 7.2 45
21:35 1017 30.03 846 24.98 19.3 66.7 47 7.7 45.9
21:40 1017 30.03 846 24.98 18.9 66.1 46 7.3 45.2
21:45 1017 30.03 846 24.98 18.8 65.9 46 7 44.5
21:50 1017 30.03 846 24.98 18.8 65.8 48 7.5 45.5
21:55 1017 30.03 846 24.98 18.4 65 49 7.5 45.4
22:00 1017 30.03 846 24.98 18.3 65 46 6.7 44.1
22:05 1017 30.03 846 24.98 18.5 65.2 45 6.5 43.7
22:10 1017 30.03 846 24.98 18.7 65.6 44 6.3 43.3
22:15 1017 30.03 846 24.98 18.7 65.7 45 6.7 44
22:20 1017 30.03 847 25.01 18.7 65.7 44 6.3 43.3
22:25 1018 30.06 847 25.01 18.9 66.1 43 6.2 43.1
22:30 1018 30.06 847 25.01 19 66.1 47 7.4 45.3
22:35 1018 30.06 847 25.01 18.4 65.1 49 7.7 45.9
22:40 1018 30.06 847 25.01 18.5 65.3 44 6.1 43
22:45 1018 30.06 847 25.01 18.7 65.7 44 6.3 43.3
22:50 1018 30.06 847 25.01 18.7 65.6 45 6.6 43.9
22:55 1018 30.06 847 25.01 18.7 65.6 42 5.7 42.2
23:00 1018 30.06 847 25.01 19 66.3 43 6.3 43.3
23:05 1018 30.06 847 25.01 18.9 66 44 6.5 43.7
23:10 1018 30.06 847 25.01 18.6 65.4 48 7.3 45.2
23:15 1017 30.03 846 24.98 17.5 63.5 54 8.3 46.9
23:20 1017 30.03 846 24.98 17 62.7 52 7.1 44.8
23:25 1017 30.03 846 24.98 17.4 63.3 49 6.6 43.8
23:30 1017 30.03 846 24.98 17.8 64 48 6.7 44
23:35 1017 30.03 846 24.98 17.9 64.3 46 6.3 43.3
23:40 1017 30.03 846 24.98 17.9 64.2 46 6.3 43.3
23:45 1017 30.03 846 24.98 18 64.4 44 5.7 42.2
23:50 1017 30.03 846 24.98 18.1 64.6 46 6.3 43.4
23:55 1017 30.03 846 24.98 17.8 64 45 5.9 42.6
24:00 1017 30.03 846 24.98 17.8 64 45 5.9 42.6